Time;durP1;ratioP1;P1;durP2;ratioP2;P2;SDS_P1;SDS_P2;PMS_P1;PMS_P2;Temp;Humidity;BMP_temperature;BMP_pressure;BME280_temperature;BME280_humidity;BME280_pressure;Samples;Min_cycle;Max_cycle;Signal;HPM_P1;HPM_P2
2021/04/01 00:00:27;;;;;;;20.10;11.40;;;;;;;;;;1048906;28;20450;-44
2021/04/01 00:00:57;;;;;;;22.90;12.20;;;;;;;;;;1049030;28;20103;-43
2021/04/01 00:01:27;;;;;;;20.53;11.57;;;;;;;;;;1048948;28;20019;-44
2021/04/01 00:01:58;;;;;;;24.70;11.57;;;;;;;;;;1049068;28;20397;-45
2021/04/01 00:02:28;;;;;;;22.83;11.67;;;;;;;;;;1053050;28;20066;-47
2021/04/01 00:02:58;;;;;;;29.50;12.07;;;;;;;;;;1052824;28;20008;-45
2021/04/01 00:03:28;;;;;;;23.23;12.20;;;;;;;;;;1053037;28;20479;-46
2021/04/01 00:03:59;;;;;;;18.70;10.93;;;;;;;;;;1053290;28;20099;-47
2021/04/01 00:04:29;;;;;;;20.90;11.10;;;;;;;;;;1053477;28;20095;-48
2021/04/01 00:04:59;;;;;;;18.80;11.40;;;;;;;;;;1053533;28;20106;-44
2021/04/01 00:05:30;;;;;;;21.47;12.23;;;;;;;;;;1053517;28;20016;-44
2021/04/01 00:06:00;;;;;;;20.37;11.57;;;;;;;;;;1053130;28;20012;-44
2021/04/01 00:06:30;;;;;;;21.03;11.73;;;;;;;;;;1053268;28;20009;-46
2021/04/01 00:07:01;;;;;;;21.07;12.33;;;;;;;;;;1053333;28;20008;-48
2021/04/01 00:07:31;;;;;;;24.93;11.50;;;;;;;;;;1053151;28;20104;-45
2021/04/01 00:08:01;;;;;;;24.30;10.73;;;;;;;;;;1053454;28;20008;-46
2021/04/01 00:08:32;;;;;;;19.17;11.60;;;;;;;;;;1053439;28;20008;-47
2021/04/01 00:09:02;;;;;;;20.77;11.70;;;;;;;;;;1053123;28;20018;-48
2021/04/01 00:09:32;;;;;;;19.60;12.20;;;;;;;;;;1053227;28;20038;-47
2021/04/01 00:10:04;;;;;;;23.13;11.77;;;;;;;;;;1053013;28;20095;-45
2021/04/01 00:10:39;;;;;;;20.88;11.15;;;;;;;;;;1051561;28;20024;-49
2021/04/01 00:11:09;;;;;;;22.90;10.85;;;;;;;;;;1053181;28;20066;-48
2021/04/01 00:11:40;;;;;;;25.63;11.03;;;;;;;;;;1053530;28;20306;-45
2021/04/01 00:12:10;;;;;;;22.33;13.00;;;;;;;;;;1053474;28;20419;-45
2021/04/01 00:12:40;;;;;;;23.00;11.73;;;;;;;;;;1053520;28;20012;-46
2021/04/01 00:13:11;;;;;;;23.27;12.27;;;;;;;;;;1053408;28;20015;-45
2021/04/01 00:13:44;;;;;;;27.58;13.40;;;;;;;;;;1052964;28;20373;-47
2021/04/01 00:14:14;;;;;;;27.00;13.00;;;;;;;;;;1053104;28;20016;-46
2021/04/01 00:14:44;;;;;;;22.80;12.07;;;;;;;;;;1053097;28;20389;-47
2021/04/01 00:15:15;;;;;;;20.73;11.57;;;;;;;;;;1053195;28;20008;-47
2021/04/01 00:15:45;;;;;;;20.83;12.33;;;;;;;;;;1053506;28;20356;-45
2021/04/01 00:16:19;;;;;;;22.97;12.23;;;;;;;;;;1053387;28;20461;-45
2021/04/01 00:16:49;;;;;;;22.92;12.20;;;;;;;;;;1053524;28;20046;-47
2021/04/01 00:17:19;;;;;;;24.97;13.07;;;;;;;;;;1053283;28;20046;-47
2021/04/01 00:17:50;;;;;;;24.03;13.23;;;;;;;;;;1053551;28;20476;-46
2021/04/01 00:18:20;;;;;;;25.07;13.10;;;;;;;;;;1053474;28;20018;-45
2021/04/01 00:18:50;;;;;;;24.00;12.10;;;;;;;;;;1053599;28;20027;-44
2021/04/01 00:19:21;;;;;;;24.10;13.20;;;;;;;;;;1053270;28;20522;-44
2021/04/01 00:19:51;;;;;;;20.20;11.57;;;;;;;;;;1053124;28;20362;-44
2021/04/01 00:20:21;;;;;;;21.80;12.10;;;;;;;;;;1053236;28;20020;-44
2021/04/01 00:20:52;;;;;;;24.97;12.13;;;;;;;;;;1053357;28;20024;-45
2021/04/01 00:21:22;;;;;;;21.93;11.67;;;;;;;;;;1053301;28;20058;-44
2021/04/01 00:21:52;;;;;;;21.77;12.60;;;;;;;;;;1053415;28;20427;-45
2021/04/01 00:22:22;;;;;;;23.57;11.80;;;;;;;;;;1053130;28;20011;-45
2021/04/01 00:22:53;;;;;;;27.33;12.07;;;;;;;;;;1053291;28;20000;-45
2021/04/01 00:23:23;;;;;;;22.20;11.90;;;;;;;;;;1053009;28;20154;-44
2021/04/01 00:23:53;;;;;;;24.10;12.10;;;;;;;;;;1049051;28;20008;-44
2021/04/01 00:24:24;;;;;;;25.63;12.07;;;;;;;;;;1053271;28;20044;-44
2021/04/01 00:24:54;;;;;;;18.67;10.80;;;;;;;;;;1053216;28;20019;-44
2021/04/01 00:25:24;;;;;;;26.97;12.60;;;;;;;;;;1053382;28;20022;-44
2021/04/01 00:25:55;;;;;;;25.67;11.70;;;;;;;;;;1053492;28;20061;-44
2021/04/01 00:26:26;;;;;;;24.15;12.80;;;;;;;;;;1053484;28;20321;-44
2021/04/01 00:26:56;;;;;;;22.30;11.70;;;;;;;;;;1053556;28;20047;-45
2021/04/01 00:27:26;;;;;;;23.70;11.87;;;;;;;;;;1053456;28;20001;-45
2021/04/01 00:27:57;;;;;;;21.27;11.60;;;;;;;;;;1053589;28;19996;-44
2021/04/01 00:28:27;;;;;;;24.43;12.47;;;;;;;;;;1053253;28;20016;-44
2021/04/01 00:28:57;;;;;;;23.10;12.40;;;;;;;;;;1053576;28;20360;-44
2021/04/01 00:29:27;;;;;;;25.40;12.67;;;;;;;;;;1053528;28;20060;-45
2021/04/01 00:29:58;;;;;;;24.90;12.30;;;;;;;;;;1053375;28;20445;-44
2021/04/01 00:30:28;;;;;;;16.87;11.80;;;;;;;;;;1053487;28;20363;-44
2021/04/01 00:30:58;;;;;;;22.87;12.00;;;;;;;;;;1053484;28;20439;-44
2021/04/01 00:31:29;;;;;;;22.83;11.53;;;;;;;;;;1053490;28;20011;-44
2021/04/01 00:31:59;;;;;;;23.43;12.87;;;;;;;;;;1053582;28;20406;-44
2021/04/01 00:32:29;;;;;;;27.30;11.30;;;;;;;;;;1053587;28;20035;-44
2021/04/01 00:32:59;;;;;;;20.90;12.10;;;;;;;;;;1053507;28;20053;-44
2021/04/01 00:33:30;;;;;;;20.40;11.20;;;;;;;;;;1053169;28;20439;-44
2021/04/01 00:34:00;;;;;;;25.40;12.13;;;;;;;;;;1053358;28;20008;-44
2021/04/01 00:34:30;;;;;;;25.10;11.73;;;;;;;;;;1052818;28;20005;-44
2021/04/01 00:35:01;;;;;;;23.47;11.57;;;;;;;;;;1053268;28;20172;-44
2021/04/01 00:35:31;;;;;;;21.50;11.37;;;;;;;;;;1053373;28;20452;-44
2021/04/01 00:36:01;;;;;;;23.43;11.93;;;;;;;;;;1053423;28;20095;-44
2021/04/01 00:36:31;;;;;;;21.63;12.20;;;;;;;;;;1053377;28;20040;-45
2021/04/01 00:37:02;;;;;;;23.47;12.37;;;;;;;;;;1053334;28;20407;-45
2021/04/01 00:37:32;;;;;;;21.17;12.80;;;;;;;;;;1053360;28;20000;-45
2021/04/01 00:38:03;;;;;;;22.27;11.93;;;;;;;;;;1053328;28;20058;-44
2021/04/01 00:38:33;;;;;;;22.70;11.63;;;;;;;;;;1053342;28;20516;-45
2021/04/01 00:39:03;;;;;;;20.70;11.37;;;;;;;;;;1053038;28;20115;-44
2021/04/01 00:39:34;;;;;;;21.77;11.77;;;;;;;;;;1053321;28;20044;-45
2021/04/01 00:40:04;;;;;;;20.20;11.37;;;;;;;;;;1053389;28;20341;-45
2021/04/01 00:40:35;;;;;;;22.47;12.00;;;;;;;;;;1053397;28;20098;-44
2021/04/01 00:41:05;;;;;;;18.87;10.80;;;;;;;;;;1053571;28;20036;-49
2021/04/01 00:41:37;;;;;;;24.63;11.83;;;;;;;;;;1053257;28;20467;-45
2021/04/01 00:42:08;;;;;;;22.38;11.80;;;;;;;;;;1053264;28;20012;-45
2021/04/01 00:42:38;;;;;;;20.77;11.87;;;;;;;;;;1053395;28;20004;-45
2021/04/01 00:43:08;;;;;;;23.00;12.07;;;;;;;;;;1053341;28;20418;-49
2021/04/01 00:43:38;;;;;;;22.57;12.87;;;;;;;;;;1053226;28;20062;-47
2021/04/01 00:44:09;;;;;;;22.43;12.03;;;;;;;;;;1053280;28;20444;-46
2021/04/01 00:44:39;;;;;;;29.97;12.03;;;;;;;;;;1053356;28;20357;-45
2021/04/01 00:45:10;;;;;;;23.47;12.17;;;;;;;;;;1053409;28;20008;-45
2021/04/01 00:45:40;;;;;;;23.00;12.10;;;;;;;;;;1053367;28;20063;-45
2021/04/01 00:46:10;;;;;;;19.57;11.70;;;;;;;;;;1052906;28;20814;-45
2021/04/01 00:46:41;;;;;;;23.67;11.90;;;;;;;;;;1053123;28;20004;-46
2021/04/01 00:47:11;;;;;;;22.90;12.50;;;;;;;;;;1053057;28;20012;-46
2021/04/01 00:47:42;;;;;;;22.50;12.03;;;;;;;;;;1048787;28;20004;-44
2021/04/01 00:48:12;;;;;;;21.00;11.30;;;;;;;;;;1052897;28;20004;-44
2021/04/01 00:48:42;;;;;;;17.20;10.57;;;;;;;;;;1053035;28;20400;-46
2021/04/01 00:49:14;;;;;;;22.33;11.90;;;;;;;;;;1052929;28;20074;-47
2021/04/01 00:49:44;;;;;;;23.50;11.70;;;;;;;;;;1052644;28;20032;-46
2021/04/01 00:50:18;;;;;;;23.03;11.73;;;;;;;;;;1053056;28;20024;-44
2021/04/01 00:50:49;;;;;;;21.52;11.15;;;;;;;;;;1053175;28;20055;-45
2021/04/01 00:51:19;;;;;;;25.93;12.63;;;;;;;;;;1052960;28;20018;-47
2021/04/01 00:51:49;;;;;;;22.87;11.03;;;;;;;;;;1053255;28;20070;-45
2021/04/01 00:52:20;;;;;;;24.27;12.20;;;;;;;;;;1053303;28;20020;-46
2021/04/01 00:52:50;;;;;;;29.00;12.63;;;;;;;;;;1052605;28;20018;-47
2021/04/01 00:53:20;;;;;;;21.83;11.57;;;;;;;;;;1052145;28;20428;-45
2021/04/01 00:53:50;;;;;;;18.10;10.70;;;;;;;;;;1052765;28;20012;-48
2021/04/01 00:54:21;;;;;;;22.90;11.27;;;;;;;;;;1048729;28;20020;-45
2021/04/01 00:54:51;;;;;;;19.77;11.23;;;;;;;;;;1048936;28;20049;-46
2021/04/01 00:55:22;;;;;;;23.83;11.33;;;;;;;;;;1048793;28;20092;-45
2021/04/01 00:55:52;;;;;;;28.17;11.70;;;;;;;;;;1048669;28;20020;-46
2021/04/01 00:56:23;;;;;;;25.50;12.13;;;;;;;;;;1044774;28;20009;-44
2021/04/01 00:56:53;;;;;;;20.40;11.67;;;;;;;;;;1049017;28;20363;-46
2021/04/01 00:57:23;;;;;;;20.30;12.07;;;;;;;;;;1053028;28;20111;-44
2021/04/01 00:57:54;;;;;;;26.43;13.43;;;;;;;;;;1053015;28;20019;-45
2021/04/01 00:58:25;;;;;;;28.83;13.43;;;;;;;;;;1052879;28;20026;-46
2021/04/01 00:58:55;;;;;;;25.73;13.40;;;;;;;;;;1048746;28;20031;-47
2021/04/01 00:59:25;;;;;;;25.33;13.00;;;;;;;;;;1044579;28;20021;-48
2021/04/01 00:59:56;;;;;;;23.87;13.30;;;;;;;;;;1044724;28;20013;-48
2021/04/01 01:00:29;;;;;;;26.77;13.03;;;;;;;;;;1048422;28;20403;-45
2021/04/01 01:01:22;;;;;;;23.65;12.70;;;;;;;;;;1049238;28;20024;-48
2021/04/01 01:01:56;;;;;;;22.92;11.90;;;;;;;;;;1048749;28;20020;-45
2021/04/01 01:02:26;;;;;;;19.17;11.27;;;;;;;;;;1048764;28;20004;-47
2021/04/01 01:02:57;;;;;;;23.73;11.80;;;;;;;;;;1040469;28;20371;-45
2021/04/01 01:03:27;;;;;;;25.40;11.93;;;;;;;;;;1040233;28;20096;-47
2021/04/01 01:03:57;;;;;;;20.17;12.57;;;;;;;;;;1040427;28;20013;-44
2021/04/01 01:04:28;;;;;;;27.60;12.37;;;;;;;;;;1040503;28;20006;-46
2021/04/01 01:04:58;;;;;;;27.57;12.83;;;;;;;;;;1040775;28;20014;-46
2021/04/01 01:05:32;;;;;;;25.20;13.13;;;;;;;;;;1044705;28;20016;-47
2021/04/01 01:06:03;;;;;;;21.58;11.63;;;;;;;;;;1048630;28;20001;-45
2021/04/01 01:06:33;;;;;;;22.70;11.77;;;;;;;;;;1049272;28;20040;-49
2021/04/01 01:07:03;;;;;;;21.90;12.13;;;;;;;;;;1053017;28;20000;-46
2021/04/01 01:07:34;;;;;;;24.57;12.37;;;;;;;;;;1052695;28;20003;-48
2021/04/01 01:08:04;;;;;;;21.60;12.07;;;;;;;;;;1053335;28;20024;-45
2021/04/01 01:08:34;;;;;;;24.80;12.03;;;;;;;;;;1053326;28;20338;-45
2021/04/01 01:09:06;;;;;;;23.30;11.40;;;;;;;;;;1053284;28;20050;-44
2021/04/01 01:09:36;;;;;;;21.42;12.00;;;;;;;;;;1053285;28;20004;-47
2021/04/01 01:10:07;;;;;;;20.03;11.93;;;;;;;;;;1053459;28;20009;-44
2021/04/01 01:10:37;;;;;;;26.48;11.98;;;;;;;;;;1053434;28;20012;-43
2021/04/01 01:11:07;;;;;;;22.90;12.00;;;;;;;;;;1053496;28;20027;-44
2021/04/01 01:11:38;;;;;;;22.83;12.73;;;;;;;;;;1053346;28;20014;-44
2021/04/01 01:12:08;;;;;;;21.27;12.33;;;;;;;;;;1053327;28;20065;-44
2021/04/01 01:12:38;;;;;;;24.90;11.80;;;;;;;;;;1052956;28;20012;-44
2021/04/01 01:13:09;;;;;;;28.50;12.33;;;;;;;;;;1053092;28;20004;-44
2021/04/01 01:13:39;;;;;;;21.10;11.73;;;;;;;;;;1052901;28;20032;-46
2021/04/01 01:14:09;;;;;;;25.23;12.40;;;;;;;;;;1048837;28;20024;-45
2021/04/01 01:14:39;;;;;;;25.33;12.70;;;;;;;;;;1053060;28;20008;-45
2021/04/01 01:15:10;;;;;;;20.40;11.17;;;;;;;;;;1053045;28;20367;-45
2021/04/01 01:15:40;;;;;;;20.30;11.90;;;;;;;;;;1052986;28;20074;-45
2021/04/01 01:16:11;;;;;;;25.27;11.13;;;;;;;;;;1053354;28;20096;-46
2021/04/01 01:16:41;;;;;;;21.50;11.27;;;;;;;;;;1053434;28;20001;-45
2021/04/01 01:17:13;;;;;;;21.50;11.63;;;;;;;;;;1053175;28;20008;-44
2021/04/01 01:17:43;;;;;;;23.08;12.05;;;;;;;;;;1052645;28;20008;-45
2021/04/01 01:18:14;;;;;;;18.53;10.97;;;;;;;;;;1048605;28;20024;-45
2021/04/01 01:18:44;;;;;;;25.77;11.83;;;;;;;;;;1048858;28;20104;-45
2021/04/01 01:19:14;;;;;;;21.33;12.43;;;;;;;;;;1048768;28;20032;-47
2021/04/01 01:19:50;;;;;;;20.27;11.17;;;;;;;;;;1048839;28;20020;-47
2021/04/01 01:20:21;;;;;;;21.20;11.85;;;;;;;;;;1052957;28;20418;-47
2021/04/01 01:20:51;;;;;;;21.15;11.75;;;;;;;;;;1053076;28;20042;-45
2021/04/01 01:21:22;;;;;;;26.20;11.47;;;;;;;;;;1045442;28;20151;-46
2021/04/01 01:21:52;;;;;;;21.17;12.10;;;;;;;;;;1044420;28;20107;-46
2021/04/01 01:22:23;;;;;;;25.27;11.90;;;;;;;;;;1044616;28;20522;-45
2021/04/01 01:22:53;;;;;;;24.20;11.70;;;;;;;;;;1040550;28;20044;-46
2021/04/01 01:23:24;;;;;;;19.43;11.10;;;;;;;;;;1048198;28;20028;-46
2021/04/01 01:23:55;;;;;;;21.70;11.68;;;;;;;;;;1052927;28;20083;-46
2021/04/01 01:24:25;;;;;;;21.27;11.33;;;;;;;;;;1052900;28;20078;-44
2021/04/01 01:24:55;;;;;;;20.07;11.17;;;;;;;;;;1048759;28;20354;-46
2021/04/01 01:25:25;;;;;;;22.27;11.27;;;;;;;;;;1048866;28;20009;-45
2021/04/01 01:25:56;;;;;;;22.87;11.43;;;;;;;;;;1048762;28;20365;-45
2021/04/01 01:26:26;;;;;;;19.47;11.33;;;;;;;;;;1048872;28;20084;-46
2021/04/01 01:26:57;;;;;;;24.33;11.53;;;;;;;;;;1052883;28;20020;-47
2021/04/01 01:27:27;;;;;;;22.67;11.50;;;;;;;;;;1048707;28;20501;-44
2021/04/01 01:27:57;;;;;;;22.73;11.40;;;;;;;;;;1044495;28;20017;-46
2021/04/01 01:28:28;;;;;;;22.23;11.80;;;;;;;;;;1044251;28;20024;-46
2021/04/01 01:28:58;;;;;;;18.93;12.07;;;;;;;;;;1048710;28;20020;-44
2021/04/01 01:29:28;;;;;;;22.50;11.60;;;;;;;;;;1048672;28;20410;-46
2021/04/01 01:29:58;;;;;;;22.17;10.90;;;;;;;;;;1052878;28;20047;-46
2021/04/01 01:30:29;;;;;;;23.57;11.00;;;;;;;;;;1052881;28;20034;-46
2021/04/01 01:30:59;;;;;;;21.73;11.10;;;;;;;;;;1053016;28;20129;-46
2021/04/01 01:31:30;;;;;;;19.27;10.63;;;;;;;;;;1053121;28;20024;-45
2021/04/01 01:32:00;;;;;;;21.07;11.70;;;;;;;;;;1052862;28;20561;-44
2021/04/01 01:32:36;;;;;;;30.80;11.47;;;;;;;;;;1052798;28;20016;-45
2021/04/01 01:33:08;;;;;;;21.95;10.77;;;;;;;;;;1052883;28;20396;-45
2021/04/01 01:33:42;;;;;;;19.17;11.38;;;;;;;;;;1052725;28;20020;-49
2021/04/01 01:34:12;;;;;;;22.27;11.52;;;;;;;;;;1053119;28;20041;-48
2021/04/01 01:34:43;;;;;;;27.17;10.97;;;;;;;;;;1053111;28;20016;-47
2021/04/01 01:35:14;;;;;;;21.20;10.50;;;;;;;;;;1053107;28;20019;-46
2021/04/01 01:35:46;;;;;;;20.40;11.85;;;;;;;;;;1052710;28;20099;-44
2021/04/01 01:36:17;;;;;;;22.50;10.60;;;;;;;;;;1052870;28;20027;-49
2021/04/01 01:36:47;;;;;;;18.67;11.50;;;;;;;;;;1052785;28;20063;-49
2021/04/01 01:37:18;;;;;;;31.00;12.07;;;;;;;;;;1052865;28;20020;-47
2021/04/01 01:37:55;;;;;;;17.17;10.77;;;;;;;;;;1052658;28;20016;-47
2021/04/01 01:38:25;;;;;;;23.35;11.60;;;;;;;;;;1052777;28;20020;-45
2021/04/01 01:38:55;;;;;;;20.20;11.43;;;;;;;;;;1052509;28;20020;-45
2021/04/01 01:39:26;;;;;;;21.83;11.27;;;;;;;;;;1052892;28;20020;-45
2021/04/01 01:39:56;;;;;;;20.40;11.07;;;;;;;;;;1053015;28;20016;-47
2021/04/01 01:40:26;;;;;;;20.87;10.87;;;;;;;;;;1053097;28;20553;-46
2021/04/01 01:40:57;;;;;;;24.27;11.57;;;;;;;;;;1052813;28;20024;-44
2021/04/01 01:41:27;;;;;;;27.93;11.20;;;;;;;;;;1052591;28;20016;-49
2021/04/01 01:41:57;;;;;;;18.47;10.53;;;;;;;;;;1052733;28;20051;-47
2021/04/01 01:42:28;;;;;;;21.97;11.20;;;;;;;;;;1052760;28;20044;-49
2021/04/01 01:42:59;;;;;;;19.97;10.53;;;;;;;;;;1053139;28;20012;-50
2021/04/01 01:43:30;;;;;;;20.65;10.65;;;;;;;;;;1052520;28;20016;-48
2021/04/01 01:44:00;;;;;;;22.33;10.87;;;;;;;;;;1052811;28;20008;-45
2021/04/01 01:44:30;;;;;;;21.87;11.53;;;;;;;;;;1048661;28;20104;-49
2021/04/01 01:45:00;;;;;;;21.27;11.13;;;;;;;;;;1048637;28;20485;-49
2021/04/01 01:45:31;;;;;;;21.60;11.03;;;;;;;;;;1052770;28;20489;-45
2021/04/01 01:46:01;;;;;;;18.33;11.47;;;;;;;;;;1052780;28;20012;-44
2021/04/01 01:46:31;;;;;;;20.30;10.47;;;;;;;;;;1053129;28;20035;-46
2021/04/01 01:47:02;;;;;;;18.87;10.80;;;;;;;;;;1053275;28;20012;-43
2021/04/01 01:47:32;;;;;;;23.20;11.50;;;;;;;;;;1053185;28;20008;-44
2021/04/01 01:48:02;;;;;;;22.00;11.00;;;;;;;;;;1053141;28;19997;-45
2021/04/01 01:48:33;;;;;;;25.33;11.50;;;;;;;;;;1053040;28;20118;-43
2021/04/01 01:49:03;;;;;;;20.20;10.97;;;;;;;;;;1052818;28;20016;-44
2021/04/01 01:49:40;;;;;;;22.73;11.23;;;;;;;;;;1052804;28;20012;-44
2021/04/01 01:50:11;;;;;;;23.90;10.88;;;;;;;;;;1052430;28;20012;-47
2021/04/01 01:50:41;;;;;;;24.83;11.33;;;;;;;;;;1049658;28;20108;-44
2021/04/01 01:51:11;;;;;;;24.97;11.83;;;;;;;;;;1052918;28;20018;-43
2021/04/01 01:51:41;;;;;;;24.13;11.67;;;;;;;;;;1052782;28;20373;-44
2021/04/01 01:52:12;;;;;;;19.80;10.77;;;;;;;;;;1052843;28;20073;-45
2021/04/01 01:52:42;;;;;;;21.13;10.47;;;;;;;;;;1053251;28;20515;-44
2021/04/01 01:53:12;;;;;;;22.03;10.97;;;;;;;;;;1053149;28;20019;-44
2021/04/01 01:53:43;;;;;;;24.53;11.40;;;;;;;;;;1053118;28;20016;-44
2021/04/01 01:54:13;;;;;;;20.23;11.50;;;;;;;;;;1052962;28;20102;-44
2021/04/01 01:54:43;;;;;;;21.43;11.17;;;;;;;;;;1052964;28;20035;-44
2021/04/01 01:55:13;;;;;;;19.20;10.40;;;;;;;;;;1052983;28;20473;-45
2021/04/01 01:55:44;;;;;;;21.30;11.03;;;;;;;;;;1052686;28;20016;-45
2021/04/01 01:56:18;;;;;;;20.23;11.17;;;;;;;;;;1053099;28;20107;-45
2021/04/01 01:56:48;;;;;;;21.98;11.07;;;;;;;;;;1053101;28;20052;-45
2021/04/01 01:57:18;;;;;;;22.07;10.60;;;;;;;;;;1052999;28;20461;-45
2021/04/01 01:57:49;;;;;;;16.83;10.50;;;;;;;;;;1052923;28;20043;-44
2021/04/01 01:58:21;;;;;;;21.87;10.73;;;;;;;;;;1052752;28;20055;-44
2021/04/01 01:58:52;;;;;;;22.10;10.77;;;;;;;;;;1052695;28;20048;-44
2021/04/01 01:59:22;;;;;;;22.63;11.70;;;;;;;;;;1052850;28;20364;-44
2021/04/01 01:59:52;;;;;;;21.20;10.60;;;;;;;;;;1053103;28;20013;-44
2021/04/01 02:00:27;;;;;;;19.37;10.43;;;;;;;;;;1053086;28;20019;-44
2021/04/01 02:00:58;;;;;;;23.98;11.43;;;;;;;;;;1052992;28;20057;-43
2021/04/01 02:01:29;;;;;;;22.17;11.32;;;;;;;;;;1053143;28;20020;-44
2021/04/01 02:01:59;;;;;;;20.33;11.00;;;;;;;;;;1052976;28;20048;-43
2021/04/01 02:02:29;;;;;;;21.80;10.40;;;;;;;;;;1053051;28;20016;-47
2021/04/01 02:03:00;;;;;;;23.07;11.23;;;;;;;;;;1052548;28;20099;-44
2021/04/01 02:03:31;;;;;;;21.35;10.48;;;;;;;;;;1052593;28;20481;-44
2021/04/01 02:04:02;;;;;;;18.70;10.47;;;;;;;;;;1052663;28;20012;-46
2021/04/01 02:04:32;;;;;;;21.85;10.85;;;;;;;;;;1052512;28;20023;-44
2021/04/01 02:05:03;;;;;;;22.53;10.80;;;;;;;;;;1053152;28;20012;-44
2021/04/01 02:05:34;;;;;;;20.53;10.83;;;;;;;;;;1053088;28;20361;-46
2021/04/01 02:06:06;;;;;;;21.10;10.43;;;;;;;;;;1052900;28;20004;-45
2021/04/01 02:06:36;;;;;;;19.92;10.63;;;;;;;;;;1052964;28;20453;-44
2021/04/01 02:07:06;;;;;;;20.50;11.17;;;;;;;;;;1052877;28;20008;-44
2021/04/01 02:07:37;;;;;;;17.77;11.10;;;;;;;;;;1052674;28;20016;-45
2021/04/01 02:08:07;;;;;;;27.23;12.00;;;;;;;;;;1053016;28;20441;-43
2021/04/01 02:08:38;;;;;;;27.73;12.05;;;;;;;;;;1053039;28;20057;-45
2021/04/01 02:09:08;;;;;;;19.73;11.23;;;;;;;;;;1053031;28;20004;-44
2021/04/01 02:09:44;;;;;;;22.67;12.03;;;;;;;;;;1053018;28;20008;-45
2021/04/01 02:10:15;;;;;;;20.30;10.93;;;;;;;;;;1053058;28;20361;-46
2021/04/01 02:10:49;;;;;;;20.15;10.75;;;;;;;;;;1052702;28;20035;-48
2021/04/01 02:11:19;;;;;;;18.90;10.90;;;;;;;;;;1052718;28;20484;-44
2021/04/01 02:11:49;;;;;;;21.00;11.37;;;;;;;;;;1052831;28;20004;-46
2021/04/01 02:12:20;;;;;;;21.03;11.23;;;;;;;;;;1052697;28;20004;-44
2021/04/01 02:12:51;;;;;;;20.70;11.00;;;;;;;;;;1053143;28;20042;-47
2021/04/01 02:13:22;;;;;;;20.75;11.57;;;;;;;;;;1053030;28;20010;-47
2021/04/01 02:13:52;;;;;;;19.40;11.75;;;;;;;;;;1053136;28;20077;-50
2021/04/01 02:14:23;;;;;;;22.27;12.20;;;;;;;;;;1052962;28;20072;-46
2021/04/01 02:14:53;;;;;;;24.50;11.63;;;;;;;;;;1053102;28;20507;-46
2021/04/01 02:15:24;;;;;;;18.97;10.93;;;;;;;;;;1053003;28;20004;-47
2021/04/01 02:15:55;;;;;;;21.52;11.82;;;;;;;;;;1052954;28;20314;-46
2021/04/01 02:16:25;;;;;;;22.90;11.73;;;;;;;;;;1052899;28;20032;-46
2021/04/01 02:16:55;;;;;;;24.87;11.93;;;;;;;;;;1053020;28;20001;-45
2021/04/01 02:17:26;;;;;;;21.20;12.00;;;;;;;;;;1052963;28;20000;-48
2021/04/01 02:18:22;;;;;;;22.17;11.20;;;;;;;;;;1053064;28;20008;-49
2021/04/01 02:18:52;;;;;;;20.88;10.88;;;;;;;;;;1048517;28;20429;-46
2021/04/01 02:19:23;;;;;;;21.17;10.87;;;;;;;;;;1048719;28;20027;-49
2021/04/01 02:19:57;;;;;;;17.77;11.50;;;;;;;;;;1048922;28;20342;-45
2021/04/01 02:20:27;;;;;;;23.67;11.57;;;;;;;;;;1052537;28;20015;-44
2021/04/01 02:20:58;;;;;;;19.93;12.00;;;;;;;;;;1052687;28;20337;-42
2021/04/01 02:21:28;;;;;;;20.60;11.43;;;;;;;;;;1052703;28;20008;-43
2021/04/01 02:21:58;;;;;;;20.67;11.03;;;;;;;;;;1052436;28;20024;-46
2021/04/01 02:22:29;;;;;;;19.23;11.57;;;;;;;;;;1048740;28;20044;-48
2021/04/01 02:22:59;;;;;;;21.87;11.60;;;;;;;;;;1048889;28;20083;-49
2021/04/01 02:23:30;;;;;;;23.60;11.97;;;;;;;;;;1048524;28;20019;-46
2021/04/01 02:24:00;;;;;;;23.05;11.45;;;;;;;;;;1048780;28;20013;-49
2021/04/01 02:24:30;;;;;;;20.67;11.40;;;;;;;;;;1048725;28;20020;-47
2021/04/01 02:25:01;;;;;;;23.67;12.10;;;;;;;;;;1048800;28;20017;-45
2021/04/01 02:25:31;;;;;;;23.93;11.73;;;;;;;;;;1048747;28;20027;-46
2021/04/01 02:26:02;;;;;;;18.27;11.07;;;;;;;;;;1048813;28;20008;-46
2021/04/01 02:26:32;;;;;;;20.73;11.77;;;;;;;;;;1049772;28;20013;-46
2021/04/01 02:27:02;;;;;;;22.13;12.40;;;;;;;;;;1052863;28;20012;-46
2021/04/01 02:27:33;;;;;;;20.40;11.93;;;;;;;;;;1052999;28;20406;-46
2021/04/01 02:28:03;;;;;;;18.23;12.00;;;;;;;;;;1053067;28;20095;-46
2021/04/01 02:28:34;;;;;;;18.63;11.10;;;;;;;;;;1052917;28;20012;-44
2021/04/01 02:29:04;;;;;;;27.90;12.50;;;;;;;;;;1053277;28;20038;-44
2021/04/01 02:29:35;;;;;;;22.37;11.53;;;;;;;;;;1053173;28;20495;-46
2021/04/01 02:30:05;;;;;;;21.77;12.00;;;;;;;;;;1053003;28;20012;-48
2021/04/01 02:30:36;;;;;;;21.03;11.00;;;;;;;;;;1052806;28;20013;-45
2021/04/01 02:31:07;;;;;;;17.40;11.47;;;;;;;;;;1052504;28;20056;-49
2021/04/01 02:31:37;;;;;;;26.07;11.47;;;;;;;;;;1052546;28;20016;-44
2021/04/01 02:32:07;;;;;;;24.77;11.90;;;;;;;;;;1052704;28;20057;-49
2021/04/01 02:32:38;;;;;;;24.03;11.60;;;;;;;;;;1052665;28;20023;-43
2021/04/01 02:33:08;;;;;;;19.70;11.87;;;;;;;;;;1052872;28;20004;-44
2021/04/01 02:33:39;;;;;;;29.40;12.73;;;;;;;;;;1052732;28;20012;-44
2021/04/01 02:34:10;;;;;;;23.95;12.13;;;;;;;;;;1052984;28;20024;-43
2021/04/01 02:34:40;;;;;;;19.17;11.00;;;;;;;;;;1052992;28;20054;-46
2021/04/01 02:35:10;;;;;;;22.03;11.27;;;;;;;;;;1053016;28;20023;-44
2021/04/01 02:35:41;;;;;;;20.90;11.10;;;;;;;;;;1052782;28;20099;-43
2021/04/01 02:36:11;;;;;;;17.47;10.83;;;;;;;;;;1052912;28;20035;-44
2021/04/01 02:36:41;;;;;;;18.97;11.23;;;;;;;;;;1052965;28;20020;-43
2021/04/01 02:37:12;;;;;;;19.63;10.67;;;;;;;;;;1052712;28;20066;-44
2021/04/01 02:37:42;;;;;;;18.23;10.87;;;;;;;;;;1052804;28;20103;-43
2021/04/01 02:38:12;;;;;;;18.97;10.33;;;;;;;;;;1052929;28;20020;-45
2021/04/01 02:38:43;;;;;;;17.03;10.07;;;;;;;;;;1052888;28;20115;-45
2021/04/01 02:39:13;;;;;;;19.00;11.13;;;;;;;;;;1052894;28;20012;-44
2021/04/01 02:39:43;;;;;;;19.43;10.87;;;;;;;;;;1053073;28;20441;-46
2021/04/01 02:40:14;;;;;;;17.70;10.53;;;;;;;;;;1053030;28;20095;-44
2021/04/01 02:40:44;;;;;;;24.87;10.70;;;;;;;;;;1052637;28;20111;-44
2021/04/01 02:41:14;;;;;;;23.30;10.57;;;;;;;;;;1052594;28;20374;-45
2021/04/01 02:41:44;;;;;;;20.93;10.67;;;;;;;;;;1052620;28;20024;-44
2021/04/01 02:42:15;;;;;;;16.63;10.23;;;;;;;;;;1052704;28;20007;-45
2021/04/01 02:42:45;;;;;;;17.53;10.83;;;;;;;;;;1052918;28;20027;-47
2021/04/01 02:43:22;;;;;;;21.03;10.93;;;;;;;;;;1052909;28;20040;-46
2021/04/01 02:43:52;;;;;;;19.63;10.90;;;;;;;;;;1053006;28;20016;-44
2021/04/01 02:44:22;;;;;;;19.97;11.10;;;;;;;;;;1052860;28;20087;-45
2021/04/01 02:44:52;;;;;;;22.03;10.83;;;;;;;;;;1052962;28;20038;-44
2021/04/01 02:45:23;;;;;;;20.43;10.83;;;;;;;;;;1052884;28;20054;-46
2021/04/01 02:45:53;;;;;;;20.67;10.70;;;;;;;;;;1052805;28;20015;-45
2021/04/01 02:46:23;;;;;;;20.17;11.20;;;;;;;;;;1052842;28;20052;-45
2021/04/01 02:46:53;;;;;;;17.90;10.97;;;;;;;;;;1052740;28;20091;-45
2021/04/01 02:47:24;;;;;;;24.77;10.40;;;;;;;;;;1052616;28;20544;-46
2021/04/01 02:47:54;;;;;;;22.27;11.17;;;;;;;;;;1052864;28;20174;-45
2021/04/01 02:48:24;;;;;;;21.37;10.50;;;;;;;;;;1052916;28;20035;-47
2021/04/01 02:48:54;;;;;;;20.67;10.83;;;;;;;;;;1052887;28;20403;-46
2021/04/01 02:49:25;;;;;;;18.93;10.07;;;;;;;;;;1052845;28;20441;-46
2021/04/01 02:49:55;;;;;;;21.10;9.80;;;;;;;;;;1052927;28;20352;-45
2021/04/01 02:50:25;;;;;;;17.87;10.47;;;;;;;;;;1052951;28;20004;-45
2021/04/01 02:50:56;;;;;;;18.47;10.50;;;;;;;;;;1052844;28;20056;-44
2021/04/01 02:51:26;;;;;;;23.07;10.63;;;;;;;;;;1052487;28;20070;-45
2021/04/01 02:51:56;;;;;;;25.73;10.50;;;;;;;;;;1052481;28;20023;-45
2021/04/01 02:52:27;;;;;;;18.80;10.30;;;;;;;;;;1052544;28;20020;-45
2021/04/01 02:52:57;;;;;;;16.87;9.83;;;;;;;;;;1052585;28;20495;-48
2021/04/01 02:53:27;;;;;;;21.30;9.67;;;;;;;;;;1052681;28;20360;-47
2021/04/01 02:53:57;;;;;;;20.40;9.80;;;;;;;;;;1052743;28;20000;-45
2021/04/01 02:54:28;;;;;;;22.10;10.70;;;;;;;;;;1052816;28;20095;-47
2021/04/01 02:54:58;;;;;;;18.63;9.53;;;;;;;;;;1052905;28;20110;-46
2021/04/01 02:55:28;;;;;;;19.50;10.00;;;;;;;;;;1052863;28;20035;-47
2021/04/01 02:55:58;;;;;;;18.13;9.83;;;;;;;;;;1052799;28;20016;-48
2021/04/01 02:56:29;;;;;;;25.87;10.87;;;;;;;;;;1052884;28;20016;-47
2021/04/01 02:56:59;;;;;;;24.77;10.77;;;;;;;;;;1052761;28;20438;-49
2021/04/01 02:57:29;;;;;;;20.77;10.40;;;;;;;;;;1052801;28;20099;-49
2021/04/01 02:58:00;;;;;;;19.93;9.83;;;;;;;;;;1052540;28;20461;-46
2021/04/01 02:58:30;;;;;;;19.33;10.23;;;;;;;;;;1052915;28;20395;-49
2021/04/01 02:59:00;;;;;;;18.67;9.93;;;;;;;;;;1052813;28;20314;-44